sensor_id;sensor_type;location;lat;lon;timestamp;temperature;humidity
2913;DHT22;1466;48.778;9.166;2024-03-08T00:02:16;7.00;99.90
2913;DHT22;1466;48.778;9.166;2024-03-08T00:04:42;7.00;99.90
2913;DHT22;1466;48.778;9.166;2024-03-08T00:07:07;6.90;99.90
2913;DHT22;1466;48.778;9.166;2024-03-08T00:09:33;6.80;99.90
2913;DHT22;1466;48.778;9.166;2024-03-08T00:11:59;6.90;99.90
2913;DHT22;1466;48.778;9.166;2024-03-08T00:14:25;6.80;99.90
2913;DHT22;1466;48.778;9.166;2024-03-08T00:16:50;6.70;99.90
2913;DHT22;1466;48.778;9.166;2024-03-08T00:19:18;6.70;99.90
2913;DHT22;1466;48.778;9.166;2024-03-08T00:21:43;6.70;99.90
2913;DHT22;1466;48.778;9.166;2024-03-08T00:24:09;6.70;99.90
2913;DHT22;1466;48.778;9.166;2024-03-08T00:26:34;6.60;99.90
2913;DHT22;1466;48.778;9.166;2024-03-08T00:29:00;6.60;99.90
2913;DHT22;1466;48.778;9.166;2024-03-08T00:31:25;6.60;99.90
2913;DHT22;1466;48.778;9.166;2024-03-08T00:33:51;6.60;99.90
2913;DHT22;1466;48.778;9.166;2024-03-08T00:36:18;6.60;99.90
2913;DHT22;1466;48.778;9.166;2024-03-08T00:38:43;6.50;99.90
2913;DHT22;1466;48.778;9.166;2024-03-08T00:41:09;6.50;99.90
2913;DHT22;1466;48.778;9.166;2024-03-08T00:43:34;6.50;99.90
2913;DHT22;1466;48.778;9.166;2024-03-08T00:46:00;6.60;99.90
2913;DHT22;1466;48.778;9.166;2024-03-08T00:48:26;6.50;99.90
2913;DHT22;1466;48.778;9.166;2024-03-08T00:50:52;6.50;99.90
2913;DHT22;1466;48.778;9.166;2024-03-08T00:53:18;6.50;99.90
2913;DHT22;1466;48.778;9.166;2024-03-08T00:55:43;6.50;99.90
2913;DHT22;1466;48.778;9.166;2024-03-08T00:58:12;6.40;99.90
2913;DHT22;1466;48.778;9.166;2024-03-08T01:00:37;6.40;99.90
2913;DHT22;1466;48.778;9.166;2024-03-08T01:03:04;6.40;99.90
2913;DHT22;1466;48.778;9.166;2024-03-08T01:05:30;6.40;99.90
2913;DHT22;1466;48.778;9.166;2024-03-08T01:07:55;6.30;99.90
2913;DHT22;1466;48.778;9.166;2024-03-08T01:10:21;6.40;99.90
2913;DHT22;1466;48.778;9.166;2024-03-08T01:12:47;6.40;99.90
2913;DHT22;1466;48.778;9.166;2024-03-08T01:15:12;6.30;99.90
2913;DHT22;1466;48.778;9.166;2024-03-08T01:17:38;6.30;99.90
2913;DHT22;1466;48.778;9.166;2024-03-08T01:20:04;6.30;99.90
2913;DHT22;1466;48.778;9.166;2024-03-08T01:22:30;6.30;99.90
2913;DHT22;1466;48.778;9.166;2024-03-08T01:24:56;6.30;99.90
2913;DHT22;1466;48.778;9.166;2024-03-08T01:27:23;6.30;99.90
2913;DHT22;1466;48.778;9.166;2024-03-08T01:29:50;6.30;99.90
2913;DHT22;1466;48.778;9.166;2024-03-08T01:32:15;6.30;99.90
2913;DHT22;1466;48.778;9.166;2024-03-08T01:34:41;6.20;99.90
2913;DHT22;1466;48.778;9.166;2024-03-08T01:37:07;6.30;99.90
2913;DHT22;1466;48.778;9.166;2024-03-08T01:39:33;6.30;99.90
2913;DHT22;1466;48.778;9.166;2024-03-08T01:41:59;6.20;99.90
2913;DHT22;1466;48.778;9.166;2024-03-08T01:44:26;6.20;99.90
2913;DHT22;1466;48.778;9.166;2024-03-08T01:46:53;6.20;99.90
2913;DHT22;1466;48.778;9.166;2024-03-08T01:49:20;6.10;99.90
2913;DHT22;1466;48.778;9.166;2024-03-08T01:51:48;6.10;99.90
2913;DHT22;1466;48.778;9.166;2024-03-08T01:54:16;6.10;99.90
2913;DHT22;1466;48.778;9.166;2024-03-08T01:56:42;6.00;99.90
2913;DHT22;1466;48.778;9.166;2024-03-08T01:59:08;6.00;99.90
2913;DHT22;1466;48.778;9.166;2024-03-08T02:01:34;5.90;99.90
2913;DHT22;1466;48.778;9.166;2024-03-08T02:04:00;5.90;99.90
2913;DHT22;1466;48.778;9.166;2024-03-08T02:06:26;5.90;99.90
2913;DHT22;1466;48.778;9.166;2024-03-08T02:08:51;5.90;99.90
2913;DHT22;1466;48.778;9.166;2024-03-08T02:11:17;5.90;99.90
2913;DHT22;1466;48.778;9.166;2024-03-08T02:13:44;5.90;99.90
2913;DHT22;1466;48.778;9.166;2024-03-08T02:16:10;5.90;99.90
2913;DHT22;1466;48.778;9.166;2024-03-08T02:18:36;5.90;99.90
2913;DHT22;1466;48.778;9.166;2024-03-08T02:21:03;5.90;99.90
2913;DHT22;1466;48.778;9.166;2024-03-08T02:23:29;5.90;99.90
2913;DHT22;1466;48.778;9.166;2024-03-08T02:25:56;5.90;99.90
2913;DHT22;1466;48.778;9.166;2024-03-08T02:28:23;5.80;99.90
2913;DHT22;1466;48.778;9.166;2024-03-08T02:30:51;5.80;99.90
2913;DHT22;1466;48.778;9.166;2024-03-08T02:33:20;5.80;99.90
2913;DHT22;1466;48.778;9.166;2024-03-08T02:35:46;5.70;99.90
2913;DHT22;1466;48.778;9.166;2024-03-08T02:38:16;5.70;99.90
2913;DHT22;1466;48.778;9.166;2024-03-08T02:40:46;5.70;99.90
2913;DHT22;1466;48.778;9.166;2024-03-08T02:43:13;5.70;99.90
2913;DHT22;1466;48.778;9.166;2024-03-08T02:45:40;5.70;99.90
2913;DHT22;1466;48.778;9.166;2024-03-08T02:48:08;5.70;99.90
2913;DHT22;1466;48.778;9.166;2024-03-08T02:50:34;5.70;99.90
2913;DHT22;1466;48.778;9.166;2024-03-08T02:53:03;5.70;99.90
2913;DHT22;1466;48.778;9.166;2024-03-08T02:55:29;5.80;99.90
2913;DHT22;1466;48.778;9.166;2024-03-08T02:57:55;5.70;99.90
2913;DHT22;1466;48.778;9.166;2024-03-08T03:00:22;5.80;99.90
2913;DHT22;1466;48.778;9.166;2024-03-08T03:02:48;5.80;99.90
2913;DHT22;1466;48.778;9.166;2024-03-08T03:05:14;5.80;99.90
2913;DHT22;1466;48.778;9.166;2024-03-08T03:07:40;5.80;99.90
2913;DHT22;1466;48.778;9.166;2024-03-08T03:10:06;5.70;99.90
2913;DHT22;1466;48.778;9.166;2024-03-08T03:12:32;5.70;99.90
2913;DHT22;1466;48.778;9.166;2024-03-08T03:14:59;5.70;99.90
2913;DHT22;1466;48.778;9.166;2024-03-08T03:17:25;5.70;99.90
2913;DHT22;1466;48.778;9.166;2024-03-08T03:19:51;5.70;99.90
2913;DHT22;1466;48.778;9.166;2024-03-08T03:22:17;5.80;99.90
2913;DHT22;1466;48.778;9.166;2024-03-08T03:24:43;5.70;99.90
2913;DHT22;1466;48.778;9.166;2024-03-08T03:27:09;5.80;99.90
2913;DHT22;1466;48.778;9.166;2024-03-08T03:29:41;5.70;99.90
2913;DHT22;1466;48.778;9.166;2024-03-08T03:32:14;5.70;99.90
2913;DHT22;1466;48.778;9.166;2024-03-08T03:34:40;5.70;99.90
2913;DHT22;1466;48.778;9.166;2024-03-08T03:37:06;5.60;99.90
2913;DHT22;1466;48.778;9.166;2024-03-08T03:39:37;5.60;99.90
2913;DHT22;1466;48.778;9.166;2024-03-08T03:42:16;5.50;99.90
2913;DHT22;1466;48.778;9.166;2024-03-08T03:44:49;5.50;99.90
2913;DHT22;1466;48.778;9.166;2024-03-08T03:47:15;5.50;99.90
2913;DHT22;1466;48.778;9.166;2024-03-08T03:49:41;5.40;99.90
2913;DHT22;1466;48.778;9.166;2024-03-08T03:52:07;5.40;99.90
2913;DHT22;1466;48.778;9.166;2024-03-08T03:54:32;5.40;99.90
2913;DHT22;1466;48.778;9.166;2024-03-08T03:56:59;5.40;99.90
2913;DHT22;1466;48.778;9.166;2024-03-08T03:59:26;5.30;99.90
2913;DHT22;1466;48.778;9.166;2024-03-08T04:01:51;5.30;99.90
2913;DHT22;1466;48.778;9.166;2024-03-08T04:04:17;5.30;99.90
2913;DHT22;1466;48.778;9.166;2024-03-08T04:06:43;5.30;99.90
2913;DHT22;1466;48.778;9.166;2024-03-08T04:09:10;5.40;99.90
2913;DHT22;1466;48.778;9.166;2024-03-08T04:11:38;5.50;99.90
2913;DHT22;1466;48.778;9.166;2024-03-08T04:14:03;5.50;99.90
2913;DHT22;1466;48.778;9.166;2024-03-08T04:16:30;5.50;99.90
2913;DHT22;1466;48.778;9.166;2024-03-08T04:18:57;5.50;99.90
2913;DHT22;1466;48.778;9.166;2024-03-08T04:21:22;5.50;99.90
2913;DHT22;1466;48.778;9.166;2024-03-08T04:23:48;5.50;99.90
2913;DHT22;1466;48.778;9.166;2024-03-08T04:26:14;5.50;99.90
2913;DHT22;1466;48.778;9.166;2024-03-08T04:28:39;5.40;99.90
2913;DHT22;1466;48.778;9.166;2024-03-08T04:31:05;5.40;99.90
2913;DHT22;1466;48.778;9.166;2024-03-08T04:33:32;5.40;99.90
2913;DHT22;1466;48.778;9.166;2024-03-08T04:35:57;5.40;99.90
2913;DHT22;1466;48.778;9.166;2024-03-08T04:38:23;5.30;99.90
2913;DHT22;1466;48.778;9.166;2024-03-08T04:40:50;5.30;99.90
2913;DHT22;1466;48.778;9.166;2024-03-08T04:43:16;5.30;99.90
2913;DHT22;1466;48.778;9.166;2024-03-08T04:45:44;5.30;99.90
2913;DHT22;1466;48.778;9.166;2024-03-08T04:48:09;5.20;99.90
2913;DHT22;1466;48.778;9.166;2024-03-08T04:50:35;5.30;99.90
2913;DHT22;1466;48.778;9.166;2024-03-08T04:53:00;5.30;99.90
2913;DHT22;1466;48.778;9.166;2024-03-08T04:55:26;5.30;99.90
2913;DHT22;1466;48.778;9.166;2024-03-08T04:57:52;5.30;99.90
2913;DHT22;1466;48.778;9.166;2024-03-08T05:00:18;5.30;99.90
2913;DHT22;1466;48.778;9.166;2024-03-08T05:02:44;5.20;99.90
2913;DHT22;1466;48.778;9.166;2024-03-08T05:05:10;5.30;99.90
2913;DHT22;1466;48.778;9.166;2024-03-08T05:07:39;5.30;99.90
2913;DHT22;1466;48.778;9.166;2024-03-08T05:10:06;5.30;99.90
2913;DHT22;1466;48.778;9.166;2024-03-08T05:12:35;5.30;99.90
2913;DHT22;1466;48.778;9.166;2024-03-08T05:15:00;5.30;99.90
2913;DHT22;1466;48.778;9.166;2024-03-08T05:17:26;5.30;99.90
2913;DHT22;1466;48.778;9.166;2024-03-08T05:19:51;5.30;99.90
2913;DHT22;1466;48.778;9.166;2024-03-08T05:22:17;5.30;99.90
2913;DHT22;1466;48.778;9.166;2024-03-08T05:24:44;5.30;99.90
2913;DHT22;1466;48.778;9.166;2024-03-08T05:27:09;5.30;99.90
2913;DHT22;1466;48.778;9.166;2024-03-08T05:29:35;5.30;99.90
2913;DHT22;1466;48.778;9.166;2024-03-08T05:32:00;5.30;99.90
2913;DHT22;1466;48.778;9.166;2024-03-08T05:34:28;5.10;99.90
2913;DHT22;1466;48.778;9.166;2024-03-08T05:36:54;5.10;99.90
2913;DHT22;1466;48.778;9.166;2024-03-08T05:39:20;5.10;99.90
2913;DHT22;1466;48.778;9.166;2024-03-08T05:41:46;5.10;99.90
2913;DHT22;1466;48.778;9.166;2024-03-08T05:44:12;5.00;99.90
2913;DHT22;1466;48.778;9.166;2024-03-08T05:46:38;5.10;99.90
2913;DHT22;1466;48.778;9.166;2024-03-08T05:49:04;5.00;99.90
2913;DHT22;1466;48.778;9.166;2024-03-08T05:51:31;5.10;99.90
2913;DHT22;1466;48.778;9.166;2024-03-08T05:54:17;5.10;99.90
2913;DHT22;1466;48.778;9.166;2024-03-08T05:56:43;5.10;99.90
2913;DHT22;1466;48.778;9.166;2024-03-08T05:59:12;5.00;99.90
2913;DHT22;1466;48.778;9.166;2024-03-08T06:01:38;5.00;99.90
2913;DHT22;1466;48.778;9.166;2024-03-08T06:04:06;5.10;99.90
2913;DHT22;1466;48.778;9.166;2024-03-08T06:06:32;5.10;99.90
2913;DHT22;1466;48.778;9.166;2024-03-08T06:08:58;5.10;99.90
2913;DHT22;1466;48.778;9.166;2024-03-08T06:11:25;5.10;99.90
2913;DHT22;1466;48.778;9.166;2024-03-08T06:13:55;5.00;99.90
2913;DHT22;1466;48.778;9.166;2024-03-08T06:16:28;5.10;99.90
2913;DHT22;1466;48.778;9.166;2024-03-08T06:18:58;5.10;99.90
2913;DHT22;1466;48.778;9.166;2024-03-08T06:21:24;5.10;99.90
2913;DHT22;1466;48.778;9.166;2024-03-08T06:23:55;5.10;99.90
2913;DHT22;1466;48.778;9.166;2024-03-08T06:26:21;5.10;99.90
2913;DHT22;1466;48.778;9.166;2024-03-08T06:28:47;5.20;99.90
2913;DHT22;1466;48.778;9.166;2024-03-08T06:31:13;5.20;99.90
2913;DHT22;1466;48.778;9.166;2024-03-08T06:33:40;5.30;99.90
2913;DHT22;1466;48.778;9.166;2024-03-08T06:36:06;5.30;99.90
2913;DHT22;1466;48.778;9.166;2024-03-08T06:38:32;5.30;99.90
2913;DHT22;1466;48.778;9.166;2024-03-08T06:40:57;5.20;99.90
2913;DHT22;1466;48.778;9.166;2024-03-08T06:43:23;5.20;99.90
2913;DHT22;1466;48.778;9.166;2024-03-08T06:45:55;5.20;99.90
2913;DHT22;1466;48.778;9.166;2024-03-08T06:48:20;5.20;99.90
2913;DHT22;1466;48.778;9.166;2024-03-08T06:50:47;5.30;99.90
2913;DHT22;1466;48.778;9.166;2024-03-08T06:53:13;5.20;99.90
2913;DHT22;1466;48.778;9.166;2024-03-08T06:55:39;5.30;99.90
2913;DHT22;1466;48.778;9.166;2024-03-08T06:58:05;5.30;99.90
2913;DHT22;1466;48.778;9.166;2024-03-08T07:00:32;5.30;99.90
2913;DHT22;1466;48.778;9.166;2024-03-08T07:02:58;5.40;99.90
2913;DHT22;1466;48.778;9.166;2024-03-08T07:05:27;5.50;99.90
2913;DHT22;1466;48.778;9.166;2024-03-08T07:07:52;5.60;99.90
2913;DHT22;1466;48.778;9.166;2024-03-08T07:10:20;5.60;99.90
2913;DHT22;1466;48.778;9.166;2024-03-08T07:12:46;5.70;99.90
2913;DHT22;1466;48.778;9.166;2024-03-08T07:15:12;5.70;99.90
2913;DHT22;1466;48.778;9.166;2024-03-08T07:17:41;5.70;99.90
2913;DHT22;1466;48.778;9.166;2024-03-08T07:20:10;5.70;99.90
2913;DHT22;1466;48.778;9.166;2024-03-08T07:22:38;5.60;99.90
2913;DHT22;1466;48.778;9.166;2024-03-08T07:25:05;5.60;99.90
2913;DHT22;1466;48.778;9.166;2024-03-08T07:27:53;5.50;99.90
2913;DHT22;1466;48.778;9.166;2024-03-08T07:30:23;5.50;99.90
2913;DHT22;1466;48.778;9.166;2024-03-08T07:33:08;5.40;99.90
2913;DHT22;1466;48.778;9.166;2024-03-08T07:35:37;5.50;99.90
2913;DHT22;1466;48.778;9.166;2024-03-08T07:38:08;5.60;99.90
2913;DHT22;1466;48.778;9.166;2024-03-08T07:40:41;5.60;99.90
2913;DHT22;1466;48.778;9.166;2024-03-08T07:43:10;5.80;99.90
2913;DHT22;1466;48.778;9.166;2024-03-08T07:45:37;5.90;99.90
2913;DHT22;1466;48.778;9.166;2024-03-08T07:48:03;6.00;99.90
2913;DHT22;1466;48.778;9.166;2024-03-08T07:50:29;6.00;99.90
2913;DHT22;1466;48.778;9.166;2024-03-08T07:52:54;6.10;99.90
2913;DHT22;1466;48.778;9.166;2024-03-08T07:55:20;6.10;99.90
2913;DHT22;1466;48.778;9.166;2024-03-08T07:57:49;6.00;99.90
2913;DHT22;1466;48.778;9.166;2024-03-08T08:00:15;6.00;99.90
2913;DHT22;1466;48.778;9.166;2024-03-08T08:02:44;6.10;99.90
2913;DHT22;1466;48.778;9.166;2024-03-08T08:05:11;6.20;99.90
2913;DHT22;1466;48.778;9.166;2024-03-08T08:07:36;6.20;99.90
2913;DHT22;1466;48.778;9.166;2024-03-08T08:10:02;6.30;99.80
2913;DHT22;1466;48.778;9.166;2024-03-08T08:12:28;6.20;99.80
2913;DHT22;1466;48.778;9.166;2024-03-08T08:14:54;6.20;99.70
2913;DHT22;1466;48.778;9.166;2024-03-08T08:17:20;6.10;99.70
2913;DHT22;1466;48.778;9.166;2024-03-08T08:19:45;6.10;99.50
2913;DHT22;1466;48.778;9.166;2024-03-08T08:22:11;6.00;99.50
2913;DHT22;1466;48.778;9.166;2024-03-08T08:24:37;5.90;99.70
2913;DHT22;1466;48.778;9.166;2024-03-08T08:27:04;5.90;99.80
2913;DHT22;1466;48.778;9.166;2024-03-08T08:29:29;5.90;99.80
2913;DHT22;1466;48.778;9.166;2024-03-08T08:31:58;5.90;99.80
2913;DHT22;1466;48.778;9.166;2024-03-08T08:34:25;5.90;99.90
2913;DHT22;1466;48.778;9.166;2024-03-08T08:36:52;5.90;99.90
2913;DHT22;1466;48.778;9.166;2024-03-08T08:39:18;6.00;99.90
2913;DHT22;1466;48.778;9.166;2024-03-08T08:41:44;6.00;99.90
2913;DHT22;1466;48.778;9.166;2024-03-08T08:44:10;6.00;99.80
2913;DHT22;1466;48.778;9.166;2024-03-08T08:46:37;6.00;99.80
2913;DHT22;1466;48.778;9.166;2024-03-08T08:49:04;6.00;99.80
2913;DHT22;1466;48.778;9.166;2024-03-08T08:51:30;6.00;99.80
2913;DHT22;1466;48.778;9.166;2024-03-08T08:53:56;6.00;99.80
2913;DHT22;1466;48.778;9.166;2024-03-08T08:56:22;6.00;99.80
2913;DHT22;1466;48.778;9.166;2024-03-08T08:58:47;6.00;99.80
2913;DHT22;1466;48.778;9.166;2024-03-08T09:01:14;6.10;99.90
2913;DHT22;1466;48.778;9.166;2024-03-08T09:03:40;6.10;99.60
2913;DHT22;1466;48.778;9.166;2024-03-08T09:06:07;6.00;99.60
2913;DHT22;1466;48.778;9.166;2024-03-08T09:08:36;6.00;99.80
2913;DHT22;1466;48.778;9.166;2024-03-08T09:11:03;6.20;99.80
2913;DHT22;1466;48.778;9.166;2024-03-08T09:13:29;6.20;99.60
2913;DHT22;1466;48.778;9.166;2024-03-08T09:15:55;6.20;99.50
2913;DHT22;1466;48.778;9.166;2024-03-08T09:18:20;6.20;99.70
2913;DHT22;1466;48.778;9.166;2024-03-08T09:20:46;6.20;99.60
2913;DHT22;1466;48.778;9.166;2024-03-08T09:23:12;6.20;99.70
2913;DHT22;1466;48.778;9.166;2024-03-08T09:25:39;6.20;99.70
2913;DHT22;1466;48.778;9.166;2024-03-08T09:28:05;6.30;99.80
2913;DHT22;1466;48.778;9.166;2024-03-08T09:30:31;6.40;99.80
2913;DHT22;1466;48.778;9.166;2024-03-08T09:32:56;6.50;99.70
2913;DHT22;1466;48.778;9.166;2024-03-08T09:35:22;6.50;99.60
2913;DHT22;1466;48.778;9.166;2024-03-08T09:37:48;6.50;99.40
2913;DHT22;1466;48.778;9.166;2024-03-08T09:40:16;6.50;99.40
2913;DHT22;1466;48.778;9.166;2024-03-08T09:42:46;6.40;99.30
2913;DHT22;1466;48.778;9.166;2024-03-08T09:45:12;6.50;99.40
2913;DHT22;1466;48.778;9.166;2024-03-08T09:47:47;6.40;99.30
2913;DHT22;1466;48.778;9.166;2024-03-08T09:50:14;6.30;99.40
2913;DHT22;1466;48.778;9.166;2024-03-08T09:52:40;6.20;99.50
2913;DHT22;1466;48.778;9.166;2024-03-08T09:55:06;6.30;99.80
2913;DHT22;1466;48.778;9.166;2024-03-08T09:57:36;6.50;99.80
2913;DHT22;1466;48.778;9.166;2024-03-08T10:00:04;6.50;99.60
2913;DHT22;1466;48.778;9.166;2024-03-08T10:02:45;6.60;99.50
2913;DHT22;1466;48.778;9.166;2024-03-08T10:05:12;6.70;99.50
2913;DHT22;1466;48.778;9.166;2024-03-08T10:07:38;6.80;99.50
2913;DHT22;1466;48.778;9.166;2024-03-08T10:10:04;6.90;99.40
2913;DHT22;1466;48.778;9.166;2024-03-08T10:12:30;6.90;99.00
2913;DHT22;1466;48.778;9.166;2024-03-08T10:14:58;6.90;98.90
2913;DHT22;1466;48.778;9.166;2024-03-08T10:17:24;6.90;98.80
2913;DHT22;1466;48.778;9.166;2024-03-08T10:19:50;6.90;98.90
2913;DHT22;1466;48.778;9.166;2024-03-08T10:22:17;7.00;98.90
2913;DHT22;1466;48.778;9.166;2024-03-08T10:24:47;7.00;98.90
2913;DHT22;1466;48.778;9.166;2024-03-08T10:27:12;7.00;98.60
2913;DHT22;1466;48.778;9.166;2024-03-08T10:29:38;7.10;98.70
2913;DHT22;1466;48.778;9.166;2024-03-08T10:32:08;7.10;98.60
2913;DHT22;1466;48.778;9.166;2024-03-08T10:34:34;7.00;98.50
2913;DHT22;1466;48.778;9.166;2024-03-08T10:37:04;7.10;98.60
2913;DHT22;1466;48.778;9.166;2024-03-08T10:39:35;7.30;98.70
2913;DHT22;1466;48.778;9.166;2024-03-08T10:42:03;7.40;98.40
2913;DHT22;1466;48.778;9.166;2024-03-08T10:52:16;7.70;97.90
2913;DHT22;1466;48.778;9.166;2024-03-08T10:54:43;7.80;97.80
2913;DHT22;1466;48.778;9.166;2024-03-08T10:57:12;7.90;97.60
2913;DHT22;1466;48.778;9.166;2024-03-08T10:59:38;8.10;97.70
2913;DHT22;1466;48.778;9.166;2024-03-08T11:02:05;8.10;97.30
2913;DHT22;1466;48.778;9.166;2024-03-08T11:04:33;8.10;96.90
2913;DHT22;1466;48.778;9.166;2024-03-08T11:07:02;8.10;96.70
2913;DHT22;1466;48.778;9.166;2024-03-08T11:09:35;8.00;96.70
2913;DHT22;1466;48.778;9.166;2024-03-08T11:14:52;8.00;97.10
2913;DHT22;1466;48.778;9.166;2024-03-08T11:19:56;8.00;96.90
2913;DHT22;1466;48.778;9.166;2024-03-08T11:22:28;8.00;96.90
2913;DHT22;1466;48.778;9.166;2024-03-08T11:25:02;8.00;96.80
2913;DHT22;1466;48.778;9.166;2024-03-08T11:27:32;8.00;97.00
2913;DHT22;1466;48.778;9.166;2024-03-08T11:30:06;8.10;97.10
2913;DHT22;1466;48.778;9.166;2024-03-08T11:32:38;8.20;96.80
2913;DHT22;1466;48.778;9.166;2024-03-08T11:35:21;8.10;96.50
2913;DHT22;1466;48.778;9.166;2024-03-08T11:37:48;8.10;96.70
2913;DHT22;1466;48.778;9.166;2024-03-08T11:40:15;8.10;96.90
2913;DHT22;1466;48.778;9.166;2024-03-08T11:42:48;8.10;96.80
2913;DHT22;1466;48.778;9.166;2024-03-08T11:45:17;8.20;96.80
2913;DHT22;1466;48.778;9.166;2024-03-08T11:47:47;8.10;96.70
2913;DHT22;1466;48.778;9.166;2024-03-08T11:50:14;8.10;96.60
2913;DHT22;1466;48.778;9.166;2024-03-08T11:52:39;8.10;96.80
2913;DHT22;1466;48.778;9.166;2024-03-08T11:55:06;8.30;96.80
2913;DHT22;1466;48.778;9.166;2024-03-08T11:57:32;8.40;96.70
2913;DHT22;1466;48.778;9.166;2024-03-08T11:59:58;8.40;96.40
2913;DHT22;1466;48.778;9.166;2024-03-08T12:02:32;8.30;96.40
2913;DHT22;1466;48.778;9.166;2024-03-08T12:05:01;8.30;96.30
2913;DHT22;1466;48.778;9.166;2024-03-08T12:07:29;8.40;96.40
2913;DHT22;1466;48.778;9.166;2024-03-08T12:10:19;8.40;96.40
2913;DHT22;1466;48.778;9.166;2024-03-08T12:12:46;8.60;96.30
2913;DHT22;1466;48.778;9.166;2024-03-08T12:15:14;8.60;96.10
2913;DHT22;1466;48.778;9.166;2024-03-08T12:17:41;8.60;95.90
2913;DHT22;1466;48.778;9.166;2024-03-08T12:20:12;8.70;95.90
2913;DHT22;1466;48.778;9.166;2024-03-08T12:22:45;8.80;96.10
2913;DHT22;1466;48.778;9.166;2024-03-08T12:25:11;8.80;95.70
2913;DHT22;1466;48.778;9.166;2024-03-08T12:27:41;8.80;95.60
2913;DHT22;1466;48.778;9.166;2024-03-08T12:30:24;8.80;95.60
2913;DHT22;1466;48.778;9.166;2024-03-08T12:35:23;9.00;95.70
2913;DHT22;1466;48.778;9.166;2024-03-08T12:37:51;9.10;95.60
2913;DHT22;1466;48.778;9.166;2024-03-08T12:40:18;9.20;95.50
2913;DHT22;1466;48.778;9.166;2024-03-08T12:42:45;9.30;95.50
2913;DHT22;1466;48.778;9.166;2024-03-08T12:45:15;9.30;95.20
2913;DHT22;1466;48.778;9.166;2024-03-08T12:47:40;9.20;95.10
2913;DHT22;1466;48.778;9.166;2024-03-08T12:50:08;9.10;95.30
2913;DHT22;1466;48.778;9.166;2024-03-08T12:52:34;9.20;95.40
2913;DHT22;1466;48.778;9.166;2024-03-08T12:55:00;9.20;95.40
2913;DHT22;1466;48.778;9.166;2024-03-08T12:57:29;9.20;95.30
2913;DHT22;1466;48.778;9.166;2024-03-08T12:59:55;9.20;95.40
2913;DHT22;1466;48.778;9.166;2024-03-08T13:02:20;9.40;95.50
2913;DHT22;1466;48.778;9.166;2024-03-08T13:04:46;9.50;95.40
2913;DHT22;1466;48.778;9.166;2024-03-08T13:07:21;9.70;95.40
2913;DHT22;1466;48.778;9.166;2024-03-08T13:09:47;9.90;95.20
2913;DHT22;1466;48.778;9.166;2024-03-08T13:12:12;10.00;94.40
2913;DHT22;1466;48.778;9.166;2024-03-08T13:14:40;10.10;94.20
2913;DHT22;1466;48.778;9.166;2024-03-08T13:17:06;10.10;94.20
2913;DHT22;1466;48.778;9.166;2024-03-08T13:19:36;10.10;94.20
2913;DHT22;1466;48.778;9.166;2024-03-08T13:22:04;10.10;94.10
2913;DHT22;1466;48.778;9.166;2024-03-08T13:24:32;10.10;94.10
2913;DHT22;1466;48.778;9.166;2024-03-08T13:26:59;10.10;94.00
2913;DHT22;1466;48.778;9.166;2024-03-08T13:29:25;10.10;94.00
2913;DHT22;1466;48.778;9.166;2024-03-08T13:31:51;10.10;93.80
2913;DHT22;1466;48.778;9.166;2024-03-08T13:34:17;10.10;93.80
2913;DHT22;1466;48.778;9.166;2024-03-08T13:36:43;10.10;93.80
2913;DHT22;1466;48.778;9.166;2024-03-08T13:39:09;10.10;93.90
2913;DHT22;1466;48.778;9.166;2024-03-08T13:41:46;10.10;93.90
2913;DHT22;1466;48.778;9.166;2024-03-08T13:44:12;10.10;93.80
2913;DHT22;1466;48.778;9.166;2024-03-08T13:46:38;10.10;93.90
2913;DHT22;1466;48.778;9.166;2024-03-08T13:49:05;10.20;93.90
2913;DHT22;1466;48.778;9.166;2024-03-08T13:51:33;10.20;93.70
2913;DHT22;1466;48.778;9.166;2024-03-08T13:53:59;10.30;93.70
2913;DHT22;1466;48.778;9.166;2024-03-08T13:56:26;10.30;93.70
2913;DHT22;1466;48.778;9.166;2024-03-08T13:58:52;10.30;93.60
2913;DHT22;1466;48.778;9.166;2024-03-08T14:01:18;10.30;93.60
2913;DHT22;1466;48.778;9.166;2024-03-08T14:03:43;10.40;93.60
2913;DHT22;1466;48.778;9.166;2024-03-08T14:06:09;10.40;93.40
2913;DHT22;1466;48.778;9.166;2024-03-08T14:08:36;10.40;93.50
2913;DHT22;1466;48.778;9.166;2024-03-08T14:11:05;10.50;93.50
2913;DHT22;1466;48.778;9.166;2024-03-08T14:13:44;10.50;93.20
2913;DHT22;1466;48.778;9.166;2024-03-08T14:16:11;10.50;93.00
2913;DHT22;1466;48.778;9.166;2024-03-08T14:18:37;10.60;93.00
2913;DHT22;1466;48.778;9.166;2024-03-08T14:21:04;10.60;93.00
2913;DHT22;1466;48.778;9.166;2024-03-08T14:23:30;10.70;92.90
2913;DHT22;1466;48.778;9.166;2024-03-08T14:25:55;10.70;92.70
2913;DHT22;1466;48.778;9.166;2024-03-08T14:28:21;10.70;92.40
2913;DHT22;1466;48.778;9.166;2024-03-08T14:30:48;10.70;92.20
2913;DHT22;1466;48.778;9.166;2024-03-08T14:33:14;10.70;92.10
2913;DHT22;1466;48.778;9.166;2024-03-08T14:35:41;10.70;92.20
2913;DHT22;1466;48.778;9.166;2024-03-08T14:38:07;10.70;92.20
2913;DHT22;1466;48.778;9.166;2024-03-08T14:40:36;10.80;92.30
2913;DHT22;1466;48.778;9.166;2024-03-08T14:43:03;10.90;92.30
2913;DHT22;1466;48.778;9.166;2024-03-08T14:45:29;11.10;92.20
2913;DHT22;1466;48.778;9.166;2024-03-08T14:47:56;11.20;92.00
2913;DHT22;1466;48.778;9.166;2024-03-08T14:50:23;11.20;91.80
2913;DHT22;1466;48.778;9.166;2024-03-08T14:52:49;11.20;91.70
2913;DHT22;1466;48.778;9.166;2024-03-08T14:55:16;11.20;91.70
2913;DHT22;1466;48.778;9.166;2024-03-08T14:57:42;11.20;91.60
2913;DHT22;1466;48.778;9.166;2024-03-08T15:00:11;11.20;91.70
2913;DHT22;1466;48.778;9.166;2024-03-08T15:02:55;11.20;91.70
2913;DHT22;1466;48.778;9.166;2024-03-08T15:05:22;11.20;91.80
2913;DHT22;1466;48.778;9.166;2024-03-08T15:07:52;11.20;91.80
2913;DHT22;1466;48.778;9.166;2024-03-08T15:10:18;11.20;91.90
2913;DHT22;1466;48.778;9.166;2024-03-08T15:12:46;11.20;91.90
2913;DHT22;1466;48.778;9.166;2024-03-08T15:15:12;11.20;92.00
2913;DHT22;1466;48.778;9.166;2024-03-08T15:17:39;11.20;92.00
2913;DHT22;1466;48.778;9.166;2024-03-08T15:20:08;11.20;92.00
2913;DHT22;1466;48.778;9.166;2024-03-08T15:22:50;11.10;91.90
2913;DHT22;1466;48.778;9.166;2024-03-08T15:25:16;11.20;92.00
2913;DHT22;1466;48.778;9.166;2024-03-08T15:27:54;11.20;92.00
2913;DHT22;1466;48.778;9.166;2024-03-08T15:30:21;11.30;91.90
2913;DHT22;1466;48.778;9.166;2024-03-08T15:32:52;11.30;91.70
2913;DHT22;1466;48.778;9.166;2024-03-08T15:35:26;11.40;91.70
2913;DHT22;1466;48.778;9.166;2024-03-08T15:37:53;11.30;91.60
2913;DHT22;1466;48.778;9.166;2024-03-08T15:40:20;11.30;91.70
2913;DHT22;1466;48.778;9.166;2024-03-08T15:45:20;11.30;91.70
2913;DHT22;1466;48.778;9.166;2024-03-08T15:47:45;11.30;91.70
2913;DHT22;1466;48.778;9.166;2024-03-08T15:50:11;11.30;91.70
2913;DHT22;1466;48.778;9.166;2024-03-08T15:52:38;11.30;91.70
2913;DHT22;1466;48.778;9.166;2024-03-08T15:55:07;11.30;91.70
2913;DHT22;1466;48.778;9.166;2024-03-08T15:57:33;11.30;91.70
2913;DHT22;1466;48.778;9.166;2024-03-08T15:59:59;11.20;91.80
2913;DHT22;1466;48.778;9.166;2024-03-08T16:02:26;11.30;91.80
2913;DHT22;1466;48.778;9.166;2024-03-08T16:04:54;11.30;91.80
2913;DHT22;1466;48.778;9.166;2024-03-08T16:07:19;11.40;92.20
2913;DHT22;1466;48.778;9.166;2024-03-08T16:09:45;11.80;91.70
2913;DHT22;1466;48.778;9.166;2024-03-08T16:12:11;11.80;91.50
2913;DHT22;1466;48.778;9.166;2024-03-08T16:14:37;11.70;91.50
2913;DHT22;1466;48.778;9.166;2024-03-08T16:17:03;11.70;91.40
2913;DHT22;1466;48.778;9.166;2024-03-08T16:19:29;11.60;91.40
2913;DHT22;1466;48.778;9.166;2024-03-08T16:21:56;11.60;91.50
2913;DHT22;1466;48.778;9.166;2024-03-08T16:24:25;11.50;91.50
2913;DHT22;1466;48.778;9.166;2024-03-08T16:26:53;11.60;91.40
2913;DHT22;1466;48.778;9.166;2024-03-08T16:29:21;11.70;91.20
2913;DHT22;1466;48.778;9.166;2024-03-08T16:31:47;11.70;91.10
2913;DHT22;1466;48.778;9.166;2024-03-08T16:34:14;11.70;91.00